Flight Track Log - Related Links

Times and Time Zones

All times are in EDT time to prevent confusion due to time zone crossing. See the CJT575 flight status page for this flight to view local times or setup timezone preferences in your user account.

Time Position Orientation Groundspeed Altitude Reporting Facility
EDT Latitude Longitude Course Direction KTS MPH feet Rate Location/Type
Thu 03:48:09 AM 49.9167 -97.2333 278° West 160 184 2,000  Level Winnipeg Center
Thu 03:49:09 AM 49.9667 -97.2333 360° North 160 184 4,100 1,800 Climbing Winnipeg Center
Thu 03:50:09 AM 49.9833 -97.3000 291° West 230 265 5,600 2,000 Climbing Winnipeg Center
Thu 03:51:09 AM 49.9833 -97.4000 270° West 250 288 8,100 2,450 Climbing Winnipeg Center
Thu 03:52:09 AM 50.0000 -97.5167 283° West 270 311 10,500 1,850 Climbing Winnipeg Center
Thu 03:53:00 AM 49.9905 -98.2292 278° West  Level Estimated
Thu 03:53:09 AM 50.0000 -97.6500 270° West 310 357 11,800  Level Winnipeg Center
Thu 03:54:09 AM 50.0167 -97.8000 280° West 360 414 13,600 2,400 Climbing Winnipeg Center
Thu 03:55:09 AM 50.0167 -97.9500 270° West 360 414 16,600 2,250 Climbing Winnipeg Center
Thu 03:56:09 AM 50.0167 -98.1167 270° West 360 414 18,100 1,550 Climbing Winnipeg Center
Thu 03:57:09 AM 50.0167 -98.2667 270° West 380 437 19,700 1,700 Climbing Winnipeg Center
Thu 03:58:09 AM 50.0333 -98.4500 278° West 390 449 21,500 1,850 Climbing Winnipeg Center
Thu 03:59:09 AM 50.0500 -98.6333 278° West 400 460 23,400 1,567 Climbing Winnipeg Center
Thu 04:01:09 AM 50.0667 -98.9667 275° West 420 483 26,200 1,333 Climbing Winnipeg Center
Thu 04:02:09 AM 50.0833 -99.1833 277° West 430 495 27,400 1,100 Climbing Winnipeg Center
Thu 04:03:09 AM 50.0667 -99.3667 262° West 440 506 28,400 1,250 Climbing Winnipeg Center
Thu 04:04:09 AM 50.0833 -99.5500 278° West 440 506 29,900 1,500 Climbing Winnipeg Center
Thu 04:05:09 AM 50.1000 -99.7333 278° West 440 506 31,400 1,400 Climbing Winnipeg Center
Thu 04:06:09 AM 50.1000 -99.9333 270° West 430 495 32,700 1,150 Climbing Winnipeg Center
Thu 04:07:09 AM 50.1000 -100.1167 270° West 420 483 33,700 650 Climbing Winnipeg Center
Thu 04:08:09 AM 50.1167 -100.2833 279° West 420 483 34,000 150 Climbing Winnipeg Center
Thu 04:09:09 AM 50.1167 -100.4833 270° West 430 495 34,000  Level Winnipeg Center
Thu 04:10:09 AM 50.1167 -100.6667 270° West 440 506 34,000  Level Winnipeg Center
Thu 04:11:09 AM 50.1333 -100.8833 277° West 440 506 34,000  Level Winnipeg Center
Thu 04:12:09 AM 50.1167 -101.0667 262° West 440 506 34,000  Level Winnipeg Center
Thu 04:13:09 AM 50.1333 -101.2500 278° West 440 506 34,000  Level Winnipeg Center
Thu 04:14:09 AM 50.1500 -101.4500 277° West 440 506 34,000  Level Winnipeg Center
Thu 04:15:09 AM 50.1333 -101.6333 262° West 440 506 34,000  Level Winnipeg Center
Thu 04:16:09 AM 50.1500 -101.8167 278° West 450 518 34,000  Level Winnipeg Center
Thu 04:17:09 AM 50.1500 -102.0333 270° West 450 518 34,000  Level Winnipeg Center
Thu 04:18:09 AM 50.1500 -102.2167 270° West 450 518 34,000  Level Winnipeg Center
Thu 04:19:09 AM 50.1500 -102.4333 270° West 450 518 34,000  Level Winnipeg Center
Thu 04:20:09 AM 50.1667 -102.6167 278° West 450 518 34,000  Level Winnipeg Center
Thu 04:21:09 AM 50.1667 -102.8167 270° West 450 518 34,000  Level Winnipeg Center
Thu 04:22:09 AM 50.1500 -103.0000 262° West 450 518 34,000  Level Winnipeg Center
Thu 04:23:09 AM 50.1667 -103.1833 278° West 450 518 34,000  Level Winnipeg Center
Thu 04:24:09 AM 50.1667 -103.4000 270° West 450 518 34,000  Level Winnipeg Center
Thu 04:25:09 AM 50.1500 -103.5833 262° West 450 518 34,000  Level Winnipeg Center
Thu 04:26:09 AM 50.1667 -103.7833 277° West 450 518 34,000  Level Winnipeg Center
Thu 04:27:09 AM 50.1667 -103.9667 270° West 450 518 34,000  Level Winnipeg Center
Thu 04:28:09 AM 50.1500 -104.1833 263° West 450 518 34,000  Level Winnipeg Center
Thu 04:29:09 AM 50.1667 -104.3667 278° West 460 529 34,000  Level Winnipeg Center
Thu 04:30:09 AM 50.1667 -104.5833 270° West 460 529 34,000  Level Winnipeg Center
Thu 04:31:09 AM 50.1500 -104.7833 263° West 460 529 34,000  Level Winnipeg Center
Thu 04:32:09 AM 50.1500 -104.9667 270° West 460 529 34,000  Level Winnipeg Center
Thu 04:33:09 AM 50.1500 -105.1500 270° West 460 529 34,000  Level Winnipeg Center
Thu 04:34:09 AM 50.1500 -105.3667 270° West 460 529 34,000  Level Winnipeg Center
Thu 04:35:09 AM 50.1500 -105.5667 270° West 460 529 34,000  Level Winnipeg Center
Thu 04:36:09 AM 50.1500 -105.7833 270° West 460 529 34,000  Level Winnipeg Center
Thu 04:37:09 AM 50.1500 -105.9667 270° West 460 529 34,000  Level Winnipeg Center
Thu 04:38:09 AM 50.1333 -106.1500 262° West 460 529 34,000  Level Winnipeg Center
Thu 04:39:09 AM 50.1333 -106.3500 270° West 450 518 34,000  Level Winnipeg Center
Thu 04:40:09 AM 50.1333 -106.5667 270° West 450 518 34,000  Level Winnipeg Center
Thu 04:41:09 AM 50.1167 -106.7500 262° West 450 518 34,000  Level Winnipeg Center
Thu 04:42:09 AM 50.1167 -106.9500 270° West 450 518 34,000  Level Winnipeg Center
Thu 04:43:09 AM 50.1167 -107.1333 270° West 450 518 34,000  Level Winnipeg Center
Thu 04:44:09 AM 50.1167 -107.3500 270° West 450 518 34,000  Level Winnipeg Center
Thu 04:45:09 AM 50.1000 -107.5333 262° West 450 518 34,000  Level Winnipeg Center
Thu 04:46:09 AM 50.1000 -107.7333 270° West 450 518 34,000  Level Winnipeg Center
Thu 04:47:09 AM 50.0833 -107.9167 262° West 450 518 34,000  Level Winnipeg Center
Thu 04:48:09 AM 50.0833 -108.1333 270° West 450 518 34,000  Level Winnipeg Center
Thu 04:49:09 AM 50.0667 -108.3167 262° West 450 518 34,000  Level Winnipeg Center
Thu 04:50:09 AM 50.0667 -108.5167 270° West 450 518 34,000  Level Winnipeg Center
Thu 04:51:09 AM 50.0667 -108.7000 270° West 450 518 34,000  Level Winnipeg Center
Thu 04:52:09 AM 50.0500 -108.9000 263° West 450 518 34,000  Level Winnipeg Center
Thu 04:53:09 AM 50.0333 -109.0833 262° West 450 518 34,000  Level Winnipeg Center
Thu 04:54:09 AM 50.0333 -109.3000 270° West 460 529 34,000  Level Winnipeg Center
Thu 04:55:09 AM 50.0167 -109.4833 262° West 460 529 34,000  Level Winnipeg Center
Thu 04:56:09 AM 50.0000 -109.6833 263° West 460 529 34,000  Level Winnipeg Center
Thu 04:57:09 AM 50.0167 -109.8667 278° West 460 529 34,000  Level Winnipeg Center
Thu 04:58:09 AM 50.0167 -110.0833 270° West 460 529 34,000  Level Winnipeg Center
Thu 04:59:09 AM 50.0167 -110.2667 270° West 460 529 34,000  Level Winnipeg Center
Thu 05:00:09 AM 50.0167 -110.4833 270° West 460 529 34,000  Level Winnipeg Center
Thu 05:01:09 AM 50.0167 -110.6667 270° West 460 529 34,000  Level Winnipeg Center
Thu 05:02:09 AM 50.0167 -110.8833 270° West 450 518 34,000  Level Winnipeg Center
Thu 05:03:09 AM 50.0167 -111.0500 270° West 450 518 34,000  Level Winnipeg Center
Thu 05:04:09 AM 50.0167 -111.2500 270° West 450 518 34,000  Level Winnipeg Center
Thu 05:05:09 AM 50.0167 -111.4333 270° West 440 506 34,000  Level Winnipeg Center
Thu 05:06:09 AM 50.0333 -111.6167 278° West 440 506 34,000  Level Winnipeg Center
Thu 05:07:09 AM 50.0167 -111.8167 263° West 430 495 34,000  Level Winnipeg Center
Thu 05:08:09 AM 50.0167 -112.0000 270° West 430 495 34,000  Level Winnipeg Center
Thu 05:09:09 AM 50.0167 -112.2000 270° West 430 495 34,000  Level Winnipeg Center
Thu 05:10:09 AM 50.0167 -112.3833 270° West 430 495 34,000  Level Winnipeg Center
Thu 05:11:09 AM 50.0000 -112.5667 262° West 430 495 34,000  Level Winnipeg Center
Thu 05:12:09 AM 50.0167 -112.7500 278° West 430 495 34,000  Level Winnipeg Center
Thu 05:13:09 AM 50.0000 -112.9333 262° West 430 495 34,000  Level Winnipeg Center
Thu 05:13:27 AM 50.0000 -112.8833 90° East 430 495 34,000  Level Vancouver Center
Thu 05:14:21 AM 49.9833 -113.1333 264° West 420 483 34,000  Level Edmonton Center
Thu 05:15:21 AM 49.9833 -113.3167 270° West 420 483 34,000  Level Edmonton Center
Thu 05:16:21 AM 50.0000 -113.5000 278° West 420 483 34,000  Level Edmonton Center
Thu 05:17:21 AM 49.9833 -113.6833 262° West 420 483 34,000  Level Edmonton Center
Thu 05:18:21 AM 49.9833 -113.8667 270° West 420 483 34,000  Level Edmonton Center
Thu 05:19:21 AM 49.9833 -114.0500 270° West 430 495 34,000  Level Edmonton Center
Thu 05:20:21 AM 49.9667 -114.2333 262° West 430 495 34,000  Level Edmonton Center
Thu 05:21:21 AM 49.9667 -114.4333 270° West 430 495 34,000  Level Edmonton Center
Thu 05:22:21 AM 49.9500 -114.6167 262° West 430 495 34,000  Level Edmonton Center
Thu 05:23:21 AM 49.9500 -114.8000 270° West 440 506 34,000  Level Edmonton Center
Thu 05:24:21 AM 49.9500 -114.9833 270° West 440 506 34,000  Level Edmonton Center
Thu 05:25:21 AM 49.9333 -115.1667 262° West 440 506 34,000  Level Edmonton Center
Thu 05:26:21 AM 49.9333 -115.3833 270° West 440 506 34,000  Level Edmonton Center
Thu 05:27:21 AM 49.9333 -115.5667 270° West 440 506 34,000  Level Edmonton Center
Thu 05:28:21 AM 49.9167 -115.7500 262° West 440 506 34,000  Level Edmonton Center
Thu 05:29:21 AM 49.9167 -115.9333 270° West 440 506 34,000  Level Edmonton Center
Thu 05:30:21 AM 49.8833 -116.1333 256° West 440 506 34,000  Level Edmonton Center
Thu 05:31:21 AM 49.8833 -116.3167 270° West 440 506 34,000  Level Edmonton Center
Thu 05:32:21 AM 49.8833 -116.5000 270° West 440 506 34,000  Level Edmonton Center
Thu 05:33:21 AM 49.8667 -116.7167 263° West 440 506 34,000  Level Edmonton Center
Thu 05:34:21 AM 49.8500 -116.9000 262° West 440 506 34,000  Level Edmonton Center
Thu 05:35:21 AM 49.8333 -117.1000 263° West 450 518 34,000  Level Edmonton Center
Thu 05:36:21 AM 49.8333 -117.2833 270° West 450 518 34,000  Level Edmonton Center
Thu 05:37:21 AM 49.8167 -117.4667 262° West 450 518 34,000  Level Edmonton Center
Thu 05:38:21 AM 49.8000 -117.6667 263° West 450 518 34,000  Level Edmonton Center
Thu 05:39:21 AM 49.7833 -117.8500 262° West 450 518 34,000  Level Edmonton Center
Thu 05:40:21 AM 49.7667 -118.0500 263° West 450 518 34,000  Level Edmonton Center
Thu 05:41:21 AM 49.7667 -118.2333 270° West 450 518 34,000  Level Edmonton Center
Thu 05:42:21 AM 49.7333 -118.4500 257° West 450 518 34,000  Level Edmonton Center
Thu 05:43:21 AM 49.7333 -118.6333 270° West 450 518 34,000  Level Edmonton Center
Thu 05:44:21 AM 49.7167 -118.8000 261° West 450 518 34,000  Level Edmonton Center
Thu 05:45:21 AM 49.7000 -119.0167 263° West 450 518 34,000  Level Edmonton Center
Thu 05:46:27 AM 49.7000 -119.1833 270° West 450 518 34,000  Level Vancouver Center
Thu 05:47:27 AM 49.6833 -119.3667 262° West 450 518 34,000  Level Vancouver Center
Thu 05:48:27 AM 49.6667 -119.5667 263° West 450 518 34,000  Level Vancouver Center
Thu 05:49:27 AM 49.6500 -119.7500 262° West 450 518 34,000  Level Vancouver Center
Thu 05:50:27 AM 49.6333 -119.9333 262° West 450 518 34,000  Level Vancouver Center
Thu 05:51:27 AM 49.6167 -120.1333 263° West 450 518 34,000  Level Vancouver Center
Thu 05:52:27 AM 49.6000 -120.3167 262° West 450 518 34,000  Level Vancouver Center
Thu 05:53:27 AM 49.5833 -120.5333 263° West 460 529 34,000  Level Vancouver Center
Thu 05:54:27 AM 49.5667 -120.7167 262° West 450 518 34,000  Level Vancouver Center
Thu 05:55:27 AM 49.5500 -120.9167 263° West 450 518 34,000  Level Vancouver Center
Thu 05:56:27 AM 49.5167 -121.1000 254° West 460 529 34,000  Level Vancouver Center
Thu 05:57:27 AM 49.5167 -121.2833 270° West 450 518 34,000  Level Vancouver Center
Thu 05:58:27 AM 49.4833 -121.4833 256° West 450 518 34,000 -550 Level Vancouver Center
Thu 05:59:27 AM 49.4667 -121.6667 262° West 460 529 32,900 -2,400 Descending Vancouver Center
Thu 06:00:27 AM 49.4333 -121.8667 256° West 450 518 29,200 -3,750 Descending Vancouver Center
Thu 06:01:27 AM 49.4333 -122.0500 270° West 450 518 25,400 -4,050 Descending Vancouver Center
Thu 06:02:27 AM 49.4167 -122.2667 263° West 450 518 21,100 -3,650 Descending Vancouver Center
Thu 06:03:27 AM 49.3833 -122.4333 253° West 440 506 18,100 -2,700 Descending Vancouver Center
Thu 06:04:27 AM 49.3667 -122.6000 261° West 410 472 15,700 -2,600 Descending Vancouver Center
Thu 06:05:27 AM 49.3500 -122.7500 260° West 390 449 12,900 -2,250 Descending Vancouver Center
Thu 06:06:27 AM 49.3333 -122.9000 260° West 360 414 11,200 -1,400 Descending Vancouver Center
Thu 06:07:27 AM 49.3167 -123.0333 259° West 320 368 10,100 -1,250 Descending Vancouver Center
Thu 06:08:27 AM 49.3000 -123.1667 259° West 290 334 8,700 -1,550 Descending Vancouver Center
Thu 06:09:27 AM 49.2833 -123.2833 258° West 270 311 7,000 -2,000 Descending Vancouver Center
Thu 06:10:27 AM 49.2833 -123.3833 270° West 260 299 4,700 -2,000 Descending Vancouver Center
Thu 06:11:27 AM 49.2500 -123.4667 239° Southwest 250 288 3,000 -850 Descending Vancouver Center
Thu 06:12:27 AM 49.2000 -123.4333 156° South 210 242 3,000 -500 Level Vancouver Center
Thu 06:13:27 AM 49.1833 -123.3667 111° Southeast 190 219 2,000 -950 Descending Vancouver Center
Thu 06:14:27 AM 49.1833 -123.2833 90° East 170 196 1,100 -800 Descending Vancouver Center
Thu 06:15:27 AM 49.1667 -123.2333 117° Southeast 140 161 400 -700 Descending Vancouver Center

Login

Don't have an account? Register now (free) for customized features, flight alerts, and more!